sensor_id;sensor_type;location;lat;lon;timestamp;temperature;humidity
5806;DHT22;2929;50.810;8.342;2023-08-20T00:00:13;18.80;99.90
5806;DHT22;2929;50.810;8.342;2023-08-20T00:02:42;18.70;99.90
5806;DHT22;2929;50.810;8.342;2023-08-20T00:05:10;18.60;99.90
5806;DHT22;2929;50.810;8.342;2023-08-20T00:07:39;18.50;99.90
5806;DHT22;2929;50.810;8.342;2023-08-20T00:10:07;18.30;99.90
5806;DHT22;2929;50.810;8.342;2023-08-20T00:12:35;18.20;99.90
5806;DHT22;2929;50.810;8.342;2023-08-20T00:15:03;18.10;99.90
5806;DHT22;2929;50.810;8.342;2023-08-20T00:17:32;18.10;99.90
5806;DHT22;2929;50.810;8.342;2023-08-20T00:19:59;18.00;99.90
5806;DHT22;2929;50.810;8.342;2023-08-20T00:22:27;18.00;99.90
5806;DHT22;2929;50.810;8.342;2023-08-20T00:24:56;18.00;99.90
5806;DHT22;2929;50.810;8.342;2023-08-20T00:27:23;18.00;99.90
5806;DHT22;2929;50.810;8.342;2023-08-20T00:29:50;18.10;99.90
5806;DHT22;2929;50.810;8.342;2023-08-20T00:32:17;18.00;99.90
5806;DHT22;2929;50.810;8.342;2023-08-20T00:34:44;18.00;99.90
5806;DHT22;2929;50.810;8.342;2023-08-20T00:37:11;18.00;99.90
5806;DHT22;2929;50.810;8.342;2023-08-20T00:39:39;17.90;99.90
5806;DHT22;2929;50.810;8.342;2023-08-20T00:42:07;17.90;99.90
5806;DHT22;2929;50.810;8.342;2023-08-20T00:44:34;17.90;99.90
5806;DHT22;2929;50.810;8.342;2023-08-20T00:47:02;17.80;99.90
5806;DHT22;2929;50.810;8.342;2023-08-20T00:49:31;17.80;99.90
5806;DHT22;2929;50.810;8.342;2023-08-20T00:51:59;17.80;99.90
5806;DHT22;2929;50.810;8.342;2023-08-20T00:54:26;17.80;99.90
5806;DHT22;2929;50.810;8.342;2023-08-20T00:56:54;17.90;99.90
5806;DHT22;2929;50.810;8.342;2023-08-20T00:59:23;17.90;99.90
5806;DHT22;2929;50.810;8.342;2023-08-20T01:01:50;17.90;99.90
5806;DHT22;2929;50.810;8.342;2023-08-20T01:04:17;17.90;99.90
5806;DHT22;2929;50.810;8.342;2023-08-20T01:06:53;17.90;99.90
5806;DHT22;2929;50.810;8.342;2023-08-20T01:09:27;17.80;99.90
5806;DHT22;2929;50.810;8.342;2023-08-20T01:12:00;17.80;99.90
5806;DHT22;2929;50.810;8.342;2023-08-20T01:14:30;17.90;99.90
5806;DHT22;2929;50.810;8.342;2023-08-20T01:16:57;17.90;99.90
5806;DHT22;2929;50.810;8.342;2023-08-20T01:19:25;17.90;99.90
5806;DHT22;2929;50.810;8.342;2023-08-20T01:25:02;17.70;99.90
5806;DHT22;2929;50.810;8.342;2023-08-20T01:27:42;17.70;99.90
5806;DHT22;2929;50.810;8.342;2023-08-20T01:30:12;17.70;99.90
5806;DHT22;2929;50.810;8.342;2023-08-20T01:32:39;17.70;99.90
5806;DHT22;2929;50.810;8.342;2023-08-20T01:35:11;17.70;99.90
5806;DHT22;2929;50.810;8.342;2023-08-20T01:37:38;17.70;99.90
5806;DHT22;2929;50.810;8.342;2023-08-20T01:40:06;17.60;99.90
5806;DHT22;2929;50.810;8.342;2023-08-20T01:42:33;17.60;99.90
5806;DHT22;2929;50.810;8.342;2023-08-20T01:45:00;17.50;99.90
5806;DHT22;2929;50.810;8.342;2023-08-20T01:47:29;17.40;99.90
5806;DHT22;2929;50.810;8.342;2023-08-20T01:50:00;17.40;99.90
5806;DHT22;2929;50.810;8.342;2023-08-20T01:52:27;17.40;99.90
5806;DHT22;2929;50.810;8.342;2023-08-20T01:54:55;17.40;99.90
5806;DHT22;2929;50.810;8.342;2023-08-20T01:57:22;17.50;99.90
5806;DHT22;2929;50.810;8.342;2023-08-20T01:59:49;17.40;99.90
5806;DHT22;2929;50.810;8.342;2023-08-20T02:02:17;17.40;99.90
5806;DHT22;2929;50.810;8.342;2023-08-20T02:04:45;17.40;99.90
5806;DHT22;2929;50.810;8.342;2023-08-20T02:07:12;17.40;99.90
5806;DHT22;2929;50.810;8.342;2023-08-20T02:09:39;17.30;99.90
5806;DHT22;2929;50.810;8.342;2023-08-20T02:12:06;17.20;99.90
5806;DHT22;2929;50.810;8.342;2023-08-20T02:14:34;17.20;99.90
5806;DHT22;2929;50.810;8.342;2023-08-20T02:17:01;17.20;99.90
5806;DHT22;2929;50.810;8.342;2023-08-20T02:19:28;17.20;99.90
5806;DHT22;2929;50.810;8.342;2023-08-20T02:21:56;17.10;99.90
5806;DHT22;2929;50.810;8.342;2023-08-20T02:24:23;17.10;99.90
5806;DHT22;2929;50.810;8.342;2023-08-20T02:26:50;17.10;99.90
5806;DHT22;2929;50.810;8.342;2023-08-20T02:29:17;17.10;99.90
5806;DHT22;2929;50.810;8.342;2023-08-20T02:31:44;17.10;99.90
5806;DHT22;2929;50.810;8.342;2023-08-20T02:34:11;17.00;99.90
5806;DHT22;2929;50.810;8.342;2023-08-20T02:36:39;16.90;99.90
5806;DHT22;2929;50.810;8.342;2023-08-20T02:39:07;16.80;99.90
5806;DHT22;2929;50.810;8.342;2023-08-20T02:41:35;16.80;99.90
5806;DHT22;2929;50.810;8.342;2023-08-20T02:44:02;16.70;99.90
5806;DHT22;2929;50.810;8.342;2023-08-20T02:46:29;16.70;99.90
5806;DHT22;2929;50.810;8.342;2023-08-20T02:48:57;16.70;99.90
5806;DHT22;2929;50.810;8.342;2023-08-20T02:51:23;16.60;99.90
5806;DHT22;2929;50.810;8.342;2023-08-20T02:53:50;16.60;99.90
5806;DHT22;2929;50.810;8.342;2023-08-20T02:56:19;16.60;99.90
5806;DHT22;2929;50.810;8.342;2023-08-20T02:58:46;16.60;99.90
5806;DHT22;2929;50.810;8.342;2023-08-20T03:01:20;16.70;99.90
5806;DHT22;2929;50.810;8.342;2023-08-20T03:03:47;16.70;99.90
5806;DHT22;2929;50.810;8.342;2023-08-20T03:06:14;16.70;99.90
5806;DHT22;2929;50.810;8.342;2023-08-20T03:08:41;16.60;99.90
5806;DHT22;2929;50.810;8.342;2023-08-20T03:11:08;16.50;99.90
5806;DHT22;2929;50.810;8.342;2023-08-20T03:13:37;16.50;99.90
5806;DHT22;2929;50.810;8.342;2023-08-20T03:16:04;16.40;99.90
5806;DHT22;2929;50.810;8.342;2023-08-20T03:18:31;16.40;99.90
5806;DHT22;2929;50.810;8.342;2023-08-20T03:20:58;16.40;99.90
5806;DHT22;2929;50.810;8.342;2023-08-20T03:23:25;16.30;99.90
5806;DHT22;2929;50.810;8.342;2023-08-20T03:25:52;16.30;99.90
5806;DHT22;2929;50.810;8.342;2023-08-20T03:28:19;16.30;99.90
5806;DHT22;2929;50.810;8.342;2023-08-20T03:30:47;16.30;99.90
5806;DHT22;2929;50.810;8.342;2023-08-20T03:33:17;16.40;99.90
5806;DHT22;2929;50.810;8.342;2023-08-20T03:35:45;16.40;99.90
5806;DHT22;2929;50.810;8.342;2023-08-20T03:38:12;16.40;99.90
5806;DHT22;2929;50.810;8.342;2023-08-20T03:40:39;16.40;99.90
5806;DHT22;2929;50.810;8.342;2023-08-20T03:43:09;16.30;99.90
5806;DHT22;2929;50.810;8.342;2023-08-20T03:45:36;16.30;99.90
5806;DHT22;2929;50.810;8.342;2023-08-20T03:48:05;16.30;99.90
5806;DHT22;2929;50.810;8.342;2023-08-20T03:50:32;16.30;99.90
5806;DHT22;2929;50.810;8.342;2023-08-20T03:52:59;16.40;99.90
5806;DHT22;2929;50.810;8.342;2023-08-20T03:55:26;16.40;99.90
5806;DHT22;2929;50.810;8.342;2023-08-20T03:57:53;16.30;99.90
5806;DHT22;2929;50.810;8.342;2023-08-20T04:00:20;16.20;99.90
5806;DHT22;2929;50.810;8.342;2023-08-20T04:02:47;16.20;99.90
5806;DHT22;2929;50.810;8.342;2023-08-20T04:05:15;16.10;99.90
5806;DHT22;2929;50.810;8.342;2023-08-20T04:07:42;16.10;99.90
5806;DHT22;2929;50.810;8.342;2023-08-20T04:10:09;16.10;99.90
5806;DHT22;2929;50.810;8.342;2023-08-20T04:12:36;16.20;99.90
5806;DHT22;2929;50.810;8.342;2023-08-20T04:15:04;16.30;99.90
5806;DHT22;2929;50.810;8.342;2023-08-20T04:17:32;16.30;99.90
5806;DHT22;2929;50.810;8.342;2023-08-20T04:19:59;16.20;99.90
5806;DHT22;2929;50.810;8.342;2023-08-20T04:22:28;16.30;99.90
5806;DHT22;2929;50.810;8.342;2023-08-20T04:24:57;16.20;99.90
5806;DHT22;2929;50.810;8.342;2023-08-20T04:27:25;16.20;99.90
5806;DHT22;2929;50.810;8.342;2023-08-20T04:29:52;16.20;99.90
5806;DHT22;2929;50.810;8.342;2023-08-20T04:32:19;16.00;99.90
5806;DHT22;2929;50.810;8.342;2023-08-20T04:34:47;16.00;99.90
5806;DHT22;2929;50.810;8.342;2023-08-20T04:37:15;16.00;99.90
5806;DHT22;2929;50.810;8.342;2023-08-20T04:39:43;16.00;99.90
5806;DHT22;2929;50.810;8.342;2023-08-20T04:42:10;15.90;99.90
5806;DHT22;2929;50.810;8.342;2023-08-20T04:44:37;16.00;99.90
5806;DHT22;2929;50.810;8.342;2023-08-20T04:47:04;15.90;99.90
5806;DHT22;2929;50.810;8.342;2023-08-20T04:49:33;15.90;99.90
5806;DHT22;2929;50.810;8.342;2023-08-20T04:52:01;16.00;99.90
5806;DHT22;2929;50.810;8.342;2023-08-20T04:54:29;16.10;99.90
5806;DHT22;2929;50.810;8.342;2023-08-20T04:56:58;16.20;99.90
5806;DHT22;2929;50.810;8.342;2023-08-20T04:59:25;16.20;99.90
5806;DHT22;2929;50.810;8.342;2023-08-20T05:01:53;16.30;99.90
5806;DHT22;2929;50.810;8.342;2023-08-20T05:04:34;16.30;99.90
5806;DHT22;2929;50.810;8.342;2023-08-20T05:07:02;16.40;99.90
5806;DHT22;2929;50.810;8.342;2023-08-20T05:09:29;16.40;99.90
5806;DHT22;2929;50.810;8.342;2023-08-20T05:11:56;16.40;99.90
5806;DHT22;2929;50.810;8.342;2023-08-20T05:14:24;16.40;99.90
5806;DHT22;2929;50.810;8.342;2023-08-20T05:16:52;16.40;99.90
5806;DHT22;2929;50.810;8.342;2023-08-20T05:19:19;16.50;99.90
5806;DHT22;2929;50.810;8.342;2023-08-20T05:21:46;16.50;99.90
5806;DHT22;2929;50.810;8.342;2023-08-20T05:24:13;16.60;99.90
5806;DHT22;2929;50.810;8.342;2023-08-20T05:26:40;16.60;99.90
5806;DHT22;2929;50.810;8.342;2023-08-20T05:29:07;16.60;99.90
5806;DHT22;2929;50.810;8.342;2023-08-20T05:31:35;16.60;99.90
5806;DHT22;2929;50.810;8.342;2023-08-20T05:34:02;16.60;99.90
5806;DHT22;2929;50.810;8.342;2023-08-20T05:36:30;16.70;99.90
5806;DHT22;2929;50.810;8.342;2023-08-20T05:38:57;16.70;99.90
5806;DHT22;2929;50.810;8.342;2023-08-20T05:41:24;16.80;99.90
5806;DHT22;2929;50.810;8.342;2023-08-20T05:43:51;16.80;99.90
5806;DHT22;2929;50.810;8.342;2023-08-20T05:46:19;16.90;99.90
5806;DHT22;2929;50.810;8.342;2023-08-20T05:48:47;17.00;99.90
5806;DHT22;2929;50.810;8.342;2023-08-20T05:51:14;17.00;99.90
5806;DHT22;2929;50.810;8.342;2023-08-20T05:53:41;17.10;99.90
5806;DHT22;2929;50.810;8.342;2023-08-20T05:56:08;17.10;99.90
5806;DHT22;2929;50.810;8.342;2023-08-20T05:58:35;17.10;99.90
5806;DHT22;2929;50.810;8.342;2023-08-20T06:01:02;17.20;99.90
5806;DHT22;2929;50.810;8.342;2023-08-20T06:03:29;17.20;99.90
5806;DHT22;2929;50.810;8.342;2023-08-20T06:05:58;17.20;99.90
5806;DHT22;2929;50.810;8.342;2023-08-20T06:08:25;17.30;99.90
5806;DHT22;2929;50.810;8.342;2023-08-20T06:10:52;17.30;99.90
5806;DHT22;2929;50.810;8.342;2023-08-20T06:13:18;17.30;99.90
5806;DHT22;2929;50.810;8.342;2023-08-20T06:15:45;17.40;99.90
5806;DHT22;2929;50.810;8.342;2023-08-20T06:18:12;17.50;99.90
5806;DHT22;2929;50.810;8.342;2023-08-20T06:20:39;17.50;99.90
5806;DHT22;2929;50.810;8.342;2023-08-20T06:23:08;17.60;99.90
5806;DHT22;2929;50.810;8.342;2023-08-20T06:25:35;17.70;99.90
5806;DHT22;2929;50.810;8.342;2023-08-20T06:28:02;17.80;99.90
5806;DHT22;2929;50.810;8.342;2023-08-20T06:30:30;17.80;99.90
5806;DHT22;2929;50.810;8.342;2023-08-20T06:32:57;17.80;99.90
5806;DHT22;2929;50.810;8.342;2023-08-20T06:35:24;17.80;99.90
5806;DHT22;2929;50.810;8.342;2023-08-20T06:37:51;17.90;99.90
5806;DHT22;2929;50.810;8.342;2023-08-20T06:40:19;18.00;99.90
5806;DHT22;2929;50.810;8.342;2023-08-20T06:42:46;18.10;99.90
5806;DHT22;2929;50.810;8.342;2023-08-20T06:45:13;18.20;99.90
5806;DHT22;2929;50.810;8.342;2023-08-20T06:47:40;18.30;99.90
5806;DHT22;2929;50.810;8.342;2023-08-20T06:50:08;18.30;99.90
5806;DHT22;2929;50.810;8.342;2023-08-20T06:52:35;18.30;99.90
5806;DHT22;2929;50.810;8.342;2023-08-20T06:55:02;18.40;99.90
5806;DHT22;2929;50.810;8.342;2023-08-20T06:57:31;18.40;99.90
5806;DHT22;2929;50.810;8.342;2023-08-20T06:59:58;18.40;99.90
5806;DHT22;2929;50.810;8.342;2023-08-20T07:02:25;18.50;99.90
5806;DHT22;2929;50.810;8.342;2023-08-20T07:04:52;18.60;99.90
5806;DHT22;2929;50.810;8.342;2023-08-20T07:07:19;18.60;99.90
5806;DHT22;2929;50.810;8.342;2023-08-20T07:09:46;18.70;99.90
5806;DHT22;2929;50.810;8.342;2023-08-20T07:12:13;18.80;99.90
5806;DHT22;2929;50.810;8.342;2023-08-20T07:14:41;18.90;99.90
5806;DHT22;2929;50.810;8.342;2023-08-20T07:17:08;18.80;99.90
5806;DHT22;2929;50.810;8.342;2023-08-20T07:19:36;18.90;99.90
5806;DHT22;2929;50.810;8.342;2023-08-20T07:22:03;19.00;99.90
5806;DHT22;2929;50.810;8.342;2023-08-20T07:24:31;19.00;99.90
5806;DHT22;2929;50.810;8.342;2023-08-20T07:27:00;19.10;99.90
5806;DHT22;2929;50.810;8.342;2023-08-20T07:29:29;19.20;99.90
5806;DHT22;2929;50.810;8.342;2023-08-20T07:31:58;19.30;99.90
5806;DHT22;2929;50.810;8.342;2023-08-20T07:34:28;19.30;99.90
5806;DHT22;2929;50.810;8.342;2023-08-20T07:36:56;19.50;99.90
5806;DHT22;2929;50.810;8.342;2023-08-20T07:39:23;19.50;99.90
5806;DHT22;2929;50.810;8.342;2023-08-20T07:41:50;19.70;99.90
5806;DHT22;2929;50.810;8.342;2023-08-20T07:44:17;19.90;99.90
5806;DHT22;2929;50.810;8.342;2023-08-20T07:46:44;20.20;99.90
5806;DHT22;2929;50.810;8.342;2023-08-20T07:49:12;20.40;99.90
5806;DHT22;2929;50.810;8.342;2023-08-20T07:51:39;20.40;99.90
5806;DHT22;2929;50.810;8.342;2023-08-20T07:54:06;20.40;99.90
5806;DHT22;2929;50.810;8.342;2023-08-20T07:56:33;20.40;99.90
5806;DHT22;2929;50.810;8.342;2023-08-20T07:59:00;20.40;99.90
5806;DHT22;2929;50.810;8.342;2023-08-20T08:01:27;20.50;99.90
5806;DHT22;2929;50.810;8.342;2023-08-20T08:03:54;20.60;99.90
5806;DHT22;2929;50.810;8.342;2023-08-20T08:06:22;20.60;99.90
5806;DHT22;2929;50.810;8.342;2023-08-20T08:08:49;20.50;99.90
5806;DHT22;2929;50.810;8.342;2023-08-20T08:11:16;20.50;99.90
5806;DHT22;2929;50.810;8.342;2023-08-20T08:13:43;20.50;99.90
5806;DHT22;2929;50.810;8.342;2023-08-20T08:16:10;20.70;99.90
5806;DHT22;2929;50.810;8.342;2023-08-20T08:18:37;20.80;99.90
5806;DHT22;2929;50.810;8.342;2023-08-20T08:21:04;20.90;99.90
5806;DHT22;2929;50.810;8.342;2023-08-20T08:23:32;21.00;99.90
5806;DHT22;2929;50.810;8.342;2023-08-20T08:25:59;21.10;99.90
5806;DHT22;2929;50.810;8.342;2023-08-20T08:28:26;21.20;99.90
5806;DHT22;2929;50.810;8.342;2023-08-20T08:30:53;21.30;99.90
5806;DHT22;2929;50.810;8.342;2023-08-20T08:33:20;21.50;99.90
5806;DHT22;2929;50.810;8.342;2023-08-20T08:35:47;21.50;99.90
5806;DHT22;2929;50.810;8.342;2023-08-20T08:38:14;21.60;99.90
5806;DHT22;2929;50.810;8.342;2023-08-20T08:40:42;21.60;99.90
5806;DHT22;2929;50.810;8.342;2023-08-20T08:43:10;21.70;99.90
5806;DHT22;2929;50.810;8.342;2023-08-20T08:45:43;21.60;99.90
5806;DHT22;2929;50.810;8.342;2023-08-20T08:48:12;21.70;99.90
5806;DHT22;2929;50.810;8.342;2023-08-20T08:50:39;21.90;99.90
5806;DHT22;2929;50.810;8.342;2023-08-20T08:53:07;22.00;99.90
5806;DHT22;2929;50.810;8.342;2023-08-20T08:55:35;22.10;99.90
5806;DHT22;2929;50.810;8.342;2023-08-20T08:58:04;22.20;99.90
5806;DHT22;2929;50.810;8.342;2023-08-20T09:00:31;22.30;99.90
5806;DHT22;2929;50.810;8.342;2023-08-20T09:02:58;22.40;99.90
5806;DHT22;2929;50.810;8.342;2023-08-20T09:05:25;22.40;99.90
5806;DHT22;2929;50.810;8.342;2023-08-20T09:07:55;22.50;99.90
5806;DHT22;2929;50.810;8.342;2023-08-20T09:10:25;22.50;99.90
5806;DHT22;2929;50.810;8.342;2023-08-20T09:12:54;22.50;99.90
5806;DHT22;2929;50.810;8.342;2023-08-20T09:15:31;22.60;99.90
5806;DHT22;2929;50.810;8.342;2023-08-20T09:18:00;22.50;99.90
5806;DHT22;2929;50.810;8.342;2023-08-20T09:20:34;22.70;99.90
5806;DHT22;2929;50.810;8.342;2023-08-20T09:23:01;22.70;99.90
5806;DHT22;2929;50.810;8.342;2023-08-20T09:25:28;22.80;99.90
5806;DHT22;2929;50.810;8.342;2023-08-20T09:27:54;23.00;99.90
5806;DHT22;2929;50.810;8.342;2023-08-20T09:30:23;23.20;99.90
5806;DHT22;2929;50.810;8.342;2023-08-20T09:33:03;23.40;99.90
5806;DHT22;2929;50.810;8.342;2023-08-20T09:35:31;23.40;99.90
5806;DHT22;2929;50.810;8.342;2023-08-20T09:38:03;23.40;99.90
5806;DHT22;2929;50.810;8.342;2023-08-20T09:40:30;23.30;99.90
5806;DHT22;2929;50.810;8.342;2023-08-20T09:42:58;23.30;99.90
5806;DHT22;2929;50.810;8.342;2023-08-20T09:45:28;23.20;99.90
5806;DHT22;2929;50.810;8.342;2023-08-20T09:47:56;23.20;99.90
5806;DHT22;2929;50.810;8.342;2023-08-20T09:50:26;23.40;99.90
5806;DHT22;2929;50.810;8.342;2023-08-20T09:52:58;23.70;99.90
5806;DHT22;2929;50.810;8.342;2023-08-20T09:55:33;23.90;99.90
5806;DHT22;2929;50.810;8.342;2023-08-20T09:58:01;24.20;99.90
5806;DHT22;2929;50.810;8.342;2023-08-20T10:00:30;24.20;99.90
5806;DHT22;2929;50.810;8.342;2023-08-20T10:02:58;24.10;99.90
5806;DHT22;2929;50.810;8.342;2023-08-20T10:05:26;24.40;99.90
5806;DHT22;2929;50.810;8.342;2023-08-20T10:07:55;24.50;99.90
5806;DHT22;2929;50.810;8.342;2023-08-20T10:10:22;24.40;99.90
5806;DHT22;2929;50.810;8.342;2023-08-20T10:12:49;24.70;99.90
5806;DHT22;2929;50.810;8.342;2023-08-20T10:15:16;24.80;99.90
5806;DHT22;2929;50.810;8.342;2023-08-20T10:17:45;25.00;99.90
5806;DHT22;2929;50.810;8.342;2023-08-20T10:20:14;25.20;99.90
5806;DHT22;2929;50.810;8.342;2023-08-20T10:22:43;25.20;99.90
5806;DHT22;2929;50.810;8.342;2023-08-20T10:25:11;25.10;99.90
5806;DHT22;2929;50.810;8.342;2023-08-20T10:27:40;25.00;99.90
5806;DHT22;2929;50.810;8.342;2023-08-20T10:30:09;25.30;99.90
5806;DHT22;2929;50.810;8.342;2023-08-20T10:32:46;25.60;99.90
5806;DHT22;2929;50.810;8.342;2023-08-20T10:35:15;25.70;99.90
5806;DHT22;2929;50.810;8.342;2023-08-20T10:38:01;25.90;99.90
5806;DHT22;2929;50.810;8.342;2023-08-20T10:40:48;25.80;99.90
5806;DHT22;2929;50.810;8.342;2023-08-20T10:43:31;25.70;99.90
5806;DHT22;2929;50.810;8.342;2023-08-20T10:46:05;25.60;99.90
5806;DHT22;2929;50.810;8.342;2023-08-20T10:48:35;25.90;99.90
5806;DHT22;2929;50.810;8.342;2023-08-20T10:51:07;26.10;99.90
5806;DHT22;2929;50.810;8.342;2023-08-20T10:53:35;26.00;99.90
5806;DHT22;2929;50.810;8.342;2023-08-20T10:56:13;26.50;99.90
5806;DHT22;2929;50.810;8.342;2023-08-20T10:58:45;26.90;99.90
5806;DHT22;2929;50.810;8.342;2023-08-20T11:01:19;27.20;99.90
5806;DHT22;2929;50.810;8.342;2023-08-20T11:03:49;27.30;99.90
5806;DHT22;2929;50.810;8.342;2023-08-20T11:06:18;27.60;99.90
5806;DHT22;2929;50.810;8.342;2023-08-20T11:08:45;27.50;99.90
5806;DHT22;2929;50.810;8.342;2023-08-20T11:11:13;27.80;99.90
5806;DHT22;2929;50.810;8.342;2023-08-20T11:13:40;27.90;99.90
5806;DHT22;2929;50.810;8.342;2023-08-20T11:16:08;27.90;99.90
5806;DHT22;2929;50.810;8.342;2023-08-20T11:18:36;28.00;99.90
5806;DHT22;2929;50.810;8.342;2023-08-20T11:21:04;28.20;99.90
5806;DHT22;2929;50.810;8.342;2023-08-20T11:23:31;28.40;99.90
5806;DHT22;2929;50.810;8.342;2023-08-20T11:25:59;28.50;99.90
5806;DHT22;2929;50.810;8.342;2023-08-20T11:28:27;28.40;99.90
5806;DHT22;2929;50.810;8.342;2023-08-20T11:30:54;28.60;99.90
5806;DHT22;2929;50.810;8.342;2023-08-20T11:33:21;28.90;99.90
5806;DHT22;2929;50.810;8.342;2023-08-20T11:35:49;28.90;99.90
5806;DHT22;2929;50.810;8.342;2023-08-20T11:38:19;28.90;99.90
5806;DHT22;2929;50.810;8.342;2023-08-20T11:40:46;28.90;99.90
5806;DHT22;2929;50.810;8.342;2023-08-20T11:43:13;29.10;99.90
5806;DHT22;2929;50.810;8.342;2023-08-20T11:45:45;29.50;99.90
5806;DHT22;2929;50.810;8.342;2023-08-20T11:48:13;29.60;99.90
5806;DHT22;2929;50.810;8.342;2023-08-20T11:50:40;30.00;99.90
5806;DHT22;2929;50.810;8.342;2023-08-20T11:53:08;30.00;99.90
5806;DHT22;2929;50.810;8.342;2023-08-20T11:55:38;30.30;99.90
5806;DHT22;2929;50.810;8.342;2023-08-20T11:58:08;30.40;99.90
5806;DHT22;2929;50.810;8.342;2023-08-20T12:00:36;30.80;99.90
5806;DHT22;2929;50.810;8.342;2023-08-20T12:03:04;31.10;99.90
5806;DHT22;2929;50.810;8.342;2023-08-20T12:05:31;31.00;99.90
5806;DHT22;2929;50.810;8.342;2023-08-20T12:08:00;31.10;99.90
5806;DHT22;2929;50.810;8.342;2023-08-20T12:10:28;31.40;99.90
5806;DHT22;2929;50.810;8.342;2023-08-20T12:12:57;31.80;99.90
5806;DHT22;2929;50.810;8.342;2023-08-20T12:15:25;32.30;99.10
5806;DHT22;2929;50.810;8.342;2023-08-20T12:17:56;32.50;94.80
5806;DHT22;2929;50.810;8.342;2023-08-20T12:20:26;32.50;96.70
5806;DHT22;2929;50.810;8.342;2023-08-20T12:22:53;32.50;93.10
5806;DHT22;2929;50.810;8.342;2023-08-20T12:25:20;33.00;93.80
5806;DHT22;2929;50.810;8.342;2023-08-20T12:27:47;33.00;93.40
5806;DHT22;2929;50.810;8.342;2023-08-20T12:30:15;33.40;93.00
5806;DHT22;2929;50.810;8.342;2023-08-20T12:32:42;32.90;92.90
5806;DHT22;2929;50.810;8.342;2023-08-20T12:35:09;32.60;92.70
5806;DHT22;2929;50.810;8.342;2023-08-20T12:37:36;32.90;93.60
5806;DHT22;2929;50.810;8.342;2023-08-20T12:40:04;33.00;94.60
5806;DHT22;2929;50.810;8.342;2023-08-20T12:42:36;32.60;94.20
5806;DHT22;2929;50.810;8.342;2023-08-20T12:45:04;32.70;94.50
5806;DHT22;2929;50.810;8.342;2023-08-20T12:47:33;32.60;95.00
5806;DHT22;2929;50.810;8.342;2023-08-20T12:50:00;32.20;94.60
5806;DHT22;2929;50.810;8.342;2023-08-20T12:52:29;31.90;96.80
5806;DHT22;2929;50.810;8.342;2023-08-20T12:54:56;32.50;95.70
5806;DHT22;2929;50.810;8.342;2023-08-20T12:57:22;32.90;95.40
5806;DHT22;2929;50.810;8.342;2023-08-20T12:59:49;32.90;94.30
5806;DHT22;2929;50.810;8.342;2023-08-20T13:02:17;32.70;97.20
5806;DHT22;2929;50.810;8.342;2023-08-20T13:04:46;32.70;94.20
5806;DHT22;2929;50.810;8.342;2023-08-20T13:07:14;32.40;98.10
5806;DHT22;2929;50.810;8.342;2023-08-20T13:09:42;31.90;95.50
5806;DHT22;2929;50.810;8.342;2023-08-20T13:12:10;31.90;98.00
5806;DHT22;2929;50.810;8.342;2023-08-20T13:14:39;31.10;98.30
5806;DHT22;2929;50.810;8.342;2023-08-20T13:17:08;30.80;99.90
5806;DHT22;2929;50.810;8.342;2023-08-20T13:19:36;30.40;99.90
5806;DHT22;2929;50.810;8.342;2023-08-20T13:22:04;30.30;99.90
5806;DHT22;2929;50.810;8.342;2023-08-20T13:24:31;30.50;99.90
5806;DHT22;2929;50.810;8.342;2023-08-20T13:26:58;30.50;99.90
5806;DHT22;2929;50.810;8.342;2023-08-20T13:29:25;30.40;99.90
5806;DHT22;2929;50.810;8.342;2023-08-20T13:31:52;30.80;99.50
5806;DHT22;2929;50.810;8.342;2023-08-20T13:34:19;31.30;99.90
5806;DHT22;2929;50.810;8.342;2023-08-20T13:36:46;31.10;99.40
5806;DHT22;2929;50.810;8.342;2023-08-20T13:39:15;31.30;98.00
5806;DHT22;2929;50.810;8.342;2023-08-20T13:41:45;31.00;99.90
5806;DHT22;2929;50.810;8.342;2023-08-20T13:44:13;31.60;99.90
5806;DHT22;2929;50.810;8.342;2023-08-20T13:46:40;32.10;97.00
5806;DHT22;2929;50.810;8.342;2023-08-20T13:49:07;32.00;98.20
5806;DHT22;2929;50.810;8.342;2023-08-20T13:51:34;32.10;97.40
5806;DHT22;2929;50.810;8.342;2023-08-20T13:54:00;32.50;99.20
5806;DHT22;2929;50.810;8.342;2023-08-20T13:56:29;32.50;94.20
5806;DHT22;2929;50.810;8.342;2023-08-20T13:58:56;31.80;95.40
5806;DHT22;2929;50.810;8.342;2023-08-20T14:01:23;32.10;95.80
5806;DHT22;2929;50.810;8.342;2023-08-20T14:03:50;32.50;96.30
5806;DHT22;2929;50.810;8.342;2023-08-20T14:06:17;32.90;95.90
5806;DHT22;2929;50.810;8.342;2023-08-20T14:08:43;33.50;93.30
5806;DHT22;2929;50.810;8.342;2023-08-20T14:11:10;34.20;91.20
5806;DHT22;2929;50.810;8.342;2023-08-20T14:13:39;34.40;93.00
5806;DHT22;2929;50.810;8.342;2023-08-20T14:16:08;34.50;91.30
5806;DHT22;2929;50.810;8.342;2023-08-20T14:18:35;35.00;88.50
5806;DHT22;2929;50.810;8.342;2023-08-20T14:21:02;34.90;90.60
5806;DHT22;2929;50.810;8.342;2023-08-20T14:23:29;35.40;90.10
5806;DHT22;2929;50.810;8.342;2023-08-20T14:25:56;34.80;90.10
5806;DHT22;2929;50.810;8.342;2023-08-20T14:28:23;34.00;92.00
5806;DHT22;2929;50.810;8.342;2023-08-20T14:30:51;33.20;92.90
5806;DHT22;2929;50.810;8.342;2023-08-20T14:33:20;33.50;94.40
5806;DHT22;2929;50.810;8.342;2023-08-20T14:35:47;33.70;92.80
5806;DHT22;2929;50.810;8.342;2023-08-20T14:38:14;34.00;91.30
5806;DHT22;2929;50.810;8.342;2023-08-20T14:40:41;34.50;89.80
5806;DHT22;2929;50.810;8.342;2023-08-20T14:43:08;34.80;86.50
5806;DHT22;2929;50.810;8.342;2023-08-20T14:45:35;34.40;86.10
5806;DHT22;2929;50.810;8.342;2023-08-20T14:48:04;34.30;90.50
5806;DHT22;2929;50.810;8.342;2023-08-20T14:50:31;34.40;87.00
5806;DHT22;2929;50.810;8.342;2023-08-20T14:52:58;34.70;87.50
5806;DHT22;2929;50.810;8.342;2023-08-20T14:55:25;35.10;88.10
5806;DHT22;2929;50.810;8.342;2023-08-20T14:57:52;34.80;87.30
5806;DHT22;2929;50.810;8.342;2023-08-20T15:00:19;34.10;89.00
5806;DHT22;2929;50.810;8.342;2023-08-20T15:02:48;33.80;82.60
5806;DHT22;2929;50.810;8.342;2023-08-20T15:05:17;33.90;86.90
5806;DHT22;2929;50.810;8.342;2023-08-20T15:07:44;33.80;83.90
5806;DHT22;2929;50.810;8.342;2023-08-20T15:10:12;33.80;88.90
5806;DHT22;2929;50.810;8.342;2023-08-20T15:12:40;33.60;85.70
5806;DHT22;2929;50.810;8.342;2023-08-20T15:15:07;34.10;85.00
5806;DHT22;2929;50.810;8.342;2023-08-20T15:17:35;33.80;83.10
5806;DHT22;2929;50.810;8.342;2023-08-20T15:20:03;33.70;87.90
5806;DHT22;2929;50.810;8.342;2023-08-20T15:22:34;34.10;83.10
5806;DHT22;2929;50.810;8.342;2023-08-20T15:25:01;34.20;82.70
5806;DHT22;2929;50.810;8.342;2023-08-20T15:27:28;33.70;82.00
5806;DHT22;2929;50.810;8.342;2023-08-20T15:29:55;33.40;86.30
5806;DHT22;2929;50.810;8.342;2023-08-20T15:32:22;33.80;84.60
5806;DHT22;2929;50.810;8.342;2023-08-20T15:34:52;33.90;87.20
5806;DHT22;2929;50.810;8.342;2023-08-20T15:37:19;34.00;84.00
5806;DHT22;2929;50.810;8.342;2023-08-20T15:39:48;34.20;86.70
5806;DHT22;2929;50.810;8.342;2023-08-20T15:42:15;34.00;89.00
5806;DHT22;2929;50.810;8.342;2023-08-20T15:44:43;34.30;85.10
5806;DHT22;2929;50.810;8.342;2023-08-20T15:47:10;33.80;90.30
5806;DHT22;2929;50.810;8.342;2023-08-20T15:49:37;33.80;89.70
5806;DHT22;2929;50.810;8.342;2023-08-20T15:52:04;33.50;88.00
5806;DHT22;2929;50.810;8.342;2023-08-20T15:54:31;33.80;88.30
5806;DHT22;2929;50.810;8.342;2023-08-20T15:57:00;33.90;89.30
5806;DHT22;2929;50.810;8.342;2023-08-20T15:59:27;34.10;90.30
5806;DHT22;2929;50.810;8.342;2023-08-20T16:01:53;34.20;85.90
5806;DHT22;2929;50.810;8.342;2023-08-20T16:04:20;34.40;87.00
5806;DHT22;2929;50.810;8.342;2023-08-20T16:06:47;34.60;87.80
5806;DHT22;2929;50.810;8.342;2023-08-20T16:09:14;34.30;86.10